createdAt,value
2018-11-04T00:00:18.307Z,24.17
2018-11-04T00:02:47.173Z,24.43
2018-11-04T00:05:15.851Z,25.40
2018-11-04T00:07:44.542Z,22.20
2018-11-04T00:10:12.791Z,24.90
2018-11-04T00:12:41.260Z,24.47
2018-11-04T00:15:10.396Z,23.70
2018-11-04T00:17:45.384Z,26.07
2018-11-04T00:20:14.827Z,24.87
2018-11-04T00:22:43.020Z,22.13
2018-11-04T00:25:12.810Z,27.30
2018-11-04T00:27:41.025Z,28.27
2018-11-04T00:30:11.627Z,23.30
2018-11-04T00:32:40.085Z,23.07
2018-11-04T00:35:08.806Z,24.47
2018-11-04T00:37:37.055Z,26.90
2018-11-04T00:40:05.871Z,23.67
2018-11-04T00:42:34.124Z,24.00
2018-11-04T00:45:02.471Z,24.87
2018-11-04T00:47:30.662Z,24.90
2018-11-04T00:49:59.019Z,25.17
2018-11-04T00:52:27.233Z,23.57
2018-11-04T00:54:55.489Z,26.60
2018-11-04T00:57:23.702Z,26.90
2018-11-04T00:59:52.071Z,25.43
2018-11-04T01:02:20.315Z,23.77
2018-11-04T01:04:48.609Z,24.80
2018-11-04T01:07:16.881Z,26.33
2018-11-04T01:09:45.073Z,24.07
2018-11-04T01:12:13.263Z,23.13
2018-11-04T01:14:41.809Z,25.40
2018-11-04T01:17:10.566Z,25.80
2018-11-04T01:19:39.002Z,27.20
2018-11-04T01:22:07.650Z,26.20
2018-11-04T01:24:36.030Z,22.80
2018-11-04T01:27:04.690Z,27.87
2018-11-04T01:29:32.902Z,23.60
2018-11-04T01:32:01.259Z,26.50
2018-11-04T01:34:29.682Z,22.83
2018-11-04T01:36:57.924Z,22.07
2018-11-04T01:39:26.422Z,22.70
2018-11-04T01:41:54.616Z,20.90
2018-11-04T01:44:22.796Z,21.70
2018-11-04T01:46:50.988Z,22.63
2018-11-04T01:49:19.182Z,22.93
2018-11-04T01:51:47.386Z,22.60
2018-11-04T01:54:15.567Z,22.60
2018-11-04T01:56:43.769Z,20.77
2018-11-04T01:59:11.953Z,22.27
2018-11-04T02:01:40.145Z,21.57
2018-11-04T02:04:08.329Z,23.60
2018-11-04T02:06:36.748Z,22.50
2018-11-04T02:09:07.473Z,23.40
2018-11-04T02:11:35.670Z,20.67
2018-11-04T02:14:03.952Z,22.40
2018-11-04T02:16:32.136Z,29.07
2018-11-04T02:19:00.358Z,24.33
2018-11-04T02:21:28.549Z,23.77
2018-11-04T02:23:56.725Z,20.70
2018-11-04T02:26:24.914Z,21.27
2018-11-04T02:28:53.098Z,20.73
2018-11-04T02:31:21.309Z,23.63
2018-11-04T02:33:49.514Z,23.77
2018-11-04T02:36:17.742Z,23.60
2018-11-04T02:38:45.926Z,21.60
2018-11-04T02:41:14.139Z,20.27
2018-11-04T02:43:42.317Z,23.47
2018-11-04T02:46:10.513Z,24.07
2018-11-04T02:48:38.690Z,21.80
2018-11-04T02:51:06.886Z,19.60
2018-11-04T02:53:35.078Z,19.80
2018-11-04T02:56:03.283Z,21.07
2018-11-04T02:58:31.466Z,24.17
2018-11-04T03:00:59.666Z,22.03
2018-11-04T03:03:27.854Z,23.90
2018-11-04T03:05:56.054Z,20.67
2018-11-04T03:08:24.254Z,19.10
2018-11-04T03:10:52.442Z,23.80
2018-11-04T03:13:20.646Z,23.40
2018-11-04T03:15:48.838Z,22.37
2018-11-04T03:18:17.100Z,22.17
2018-11-04T03:20:45.306Z,23.63
2018-11-04T03:23:13.501Z,26.63
2018-11-04T03:25:41.695Z,22.60
2018-11-04T03:28:10.706Z,24.93
2018-11-04T03:30:39.175Z,27.73
2018-11-04T03:33:08.177Z,23.10
2018-11-04T03:35:36.386Z,21.90
2018-11-04T03:38:04.698Z,24.10
2018-11-04T03:40:32.890Z,21.93
2018-11-04T03:43:01.090Z,21.03
2018-11-04T03:45:29.269Z,21.80
2018-11-04T03:47:57.457Z,21.80
2018-11-04T03:50:25.643Z,23.60
2018-11-04T03:52:53.862Z,20.10
2018-11-04T03:55:22.049Z,24.87
2018-11-04T03:57:50.257Z,23.13
2018-11-04T04:00:18.452Z,22.47
2018-11-04T04:02:46.641Z,22.53
2018-11-04T04:05:14.814Z,22.40
2018-11-04T04:07:43.009Z,22.30
2018-11-04T04:10:11.195Z,24.27
2018-11-04T04:12:39.386Z,23.70
2018-11-04T04:15:08.367Z,21.20
2018-11-04T04:17:36.605Z,22.13
2018-11-04T04:20:05.367Z,21.70
2018-11-04T04:22:33.635Z,23.23
2018-11-04T04:25:01.825Z,22.10
2018-11-04T04:27:30.168Z,21.37
2018-11-04T04:29:58.637Z,21.37
2018-11-04T04:32:26.843Z,21.60
2018-11-04T04:34:55.038Z,21.37
2018-11-04T04:37:23.269Z,22.43
2018-11-04T04:39:51.481Z,22.57
2018-11-04T04:42:19.669Z,22.63
2018-11-04T04:44:48.302Z,23.60
2018-11-04T04:47:16.505Z,22.90
2018-11-04T04:49:44.763Z,22.27
2018-11-04T04:52:12.966Z,26.97
2018-11-04T04:54:41.185Z,28.47
2018-11-04T04:57:09.393Z,26.83
2018-11-04T04:59:37.634Z,26.03
2018-11-04T05:02:05.823Z,22.97
2018-11-04T05:04:34.007Z,26.87
2018-11-04T05:07:02.193Z,27.47
2018-11-04T05:09:30.390Z,23.00
2018-11-04T05:11:58.606Z,23.50
2018-11-04T05:14:26.785Z,24.33
2018-11-04T05:16:55.006Z,23.53
2018-11-04T05:19:23.198Z,27.73
2018-11-04T05:21:51.395Z,28.77
2018-11-04T05:24:19.584Z,24.60
2018-11-04T05:26:47.776Z,23.60
2018-11-04T05:29:15.961Z,27.20
2018-11-04T05:31:44.149Z,24.03
2018-11-04T05:34:12.328Z,22.80
2018-11-04T05:36:40.525Z,24.80
2018-11-04T05:39:09.766Z,24.70
2018-11-04T05:41:38.315Z,26.63
2018-11-04T05:44:06.494Z,24.40
2018-11-04T05:46:35.110Z,24.83
2018-11-04T05:49:03.301Z,23.80
2018-11-04T05:51:31.490Z,22.00
2018-11-04T05:53:59.688Z,24.20
2018-11-04T05:56:27.857Z,24.77
2018-11-04T05:58:56.041Z,23.33
2018-11-04T06:01:24.289Z,22.40
2018-11-04T06:03:52.473Z,23.40
2018-11-04T06:06:20.661Z,27.27
2018-11-04T06:08:48.846Z,22.97
2018-11-04T06:11:17.025Z,27.53
2018-11-04T06:13:45.223Z,27.07
2018-11-04T06:16:13.412Z,26.23
2018-11-04T06:18:41.606Z,26.47
2018-11-04T06:21:09.786Z,27.10
2018-11-04T06:23:38.013Z,23.80
2018-11-04T06:26:06.249Z,24.83
2018-11-04T06:28:34.465Z,23.77
2018-11-04T06:31:02.652Z,25.17
2018-11-04T06:33:30.853Z,25.53
2018-11-04T06:35:59.049Z,25.30
2018-11-04T06:38:33.961Z,24.87
2018-11-04T06:41:02.153Z,24.20
2018-11-04T06:43:30.340Z,23.40
2018-11-04T06:45:58.526Z,23.80
2018-11-04T06:48:26.733Z,24.37
2018-11-04T06:50:54.940Z,24.20
2018-11-04T06:53:23.150Z,24.30
2018-11-04T06:55:51.341Z,24.43
2018-11-04T06:58:19.537Z,24.40
2018-11-04T07:00:47.717Z,30.53
2018-11-04T07:03:15.905Z,26.63
2018-11-04T07:05:44.126Z,25.27
2018-11-04T07:08:12.318Z,28.50
2018-11-04T07:10:40.511Z,23.80
2018-11-04T07:13:08.706Z,29.73
2018-11-04T07:15:36.911Z,23.40
2018-11-04T07:18:05.133Z,24.73
2018-11-04T07:20:33.318Z,27.60
2018-11-04T07:23:01.509Z,27.03
2018-11-04T07:25:29.708Z,28.53
2018-11-04T07:27:57.915Z,26.17
2018-11-04T07:30:26.106Z,31.97
2018-11-04T07:32:54.306Z,29.23
2018-11-04T07:35:22.503Z,30.50
2018-11-04T07:37:50.697Z,27.50
2018-11-04T07:40:18.901Z,26.53
2018-11-04T07:42:47.110Z,27.77
2018-11-04T07:45:15.329Z,27.57
2018-11-04T07:47:43.533Z,26.07
2018-11-04T07:50:13.559Z,28.37
2018-11-04T07:52:42.464Z,25.33
2018-11-04T07:55:10.691Z,28.33
2018-11-04T07:57:40.741Z,28.73
2018-11-04T08:00:11.682Z,32.53
2018-11-04T08:02:40.009Z,31.97
2018-11-04T08:05:09.145Z,29.50
2018-11-04T08:07:38.058Z,30.90
2018-11-04T08:10:14.640Z,33.43
2018-11-04T08:12:42.872Z,32.67
2018-11-04T08:15:11.575Z,34.03
2018-11-04T08:17:40.066Z,30.60
2018-11-04T08:20:08.660Z,30.93
2018-11-04T08:22:36.870Z,31.07
2018-11-04T08:25:05.467Z,29.77
2018-11-04T08:27:33.695Z,29.70
2018-11-04T08:30:01.960Z,31.17
2018-11-04T08:32:30.140Z,32.27
2018-11-04T08:34:58.353Z,29.20
2018-11-04T08:37:26.777Z,32.30
2018-11-04T08:39:55.075Z,32.83
2018-11-04T08:42:23.177Z,33.33
2018-11-04T08:44:51.403Z,30.67
2018-11-04T08:47:19.597Z,35.13
2018-11-04T08:49:47.790Z,36.40
2018-11-04T08:52:16.043Z,36.63
2018-11-04T08:54:44.333Z,30.23
2018-11-04T08:57:13.010Z,34.47
2018-11-04T08:59:41.489Z,40.23
2018-11-04T09:02:09.663Z,33.37
2018-11-04T09:04:37.855Z,34.90
2018-11-04T09:07:06.270Z,33.33
2018-11-04T09:09:34.470Z,36.33
2018-11-04T09:12:02.651Z,31.50
2018-11-04T09:14:30.847Z,22.70
2018-11-04T09:16:59.036Z,24.90
2018-11-04T09:19:27.242Z,22.10
2018-11-04T09:21:55.583Z,22.20
2018-11-04T09:24:23.645Z,27.90
2018-11-04T09:26:51.887Z,28.80
2018-11-04T09:29:20.124Z,20.80
2018-11-04T09:31:48.293Z,20.80
2018-11-04T09:34:16.514Z,22.63
2018-11-04T09:36:44.741Z,15.93
2018-11-04T09:39:13.014Z,15.03
2018-11-04T09:41:41.267Z,14.20
2018-11-04T09:44:09.485Z,14.17
2018-11-04T09:46:37.670Z,16.43
2018-11-04T09:49:05.869Z,15.27
2018-11-04T09:51:34.080Z,14.37
2018-11-04T09:54:02.267Z,11.70
2018-11-04T09:56:30.532Z,13.40
2018-11-04T09:58:58.658Z,13.30
2018-11-04T10:01:26.866Z,15.00
2018-11-04T10:03:55.075Z,14.60
2018-11-04T10:06:23.281Z,18.43
2018-11-04T10:08:51.482Z,17.33
2018-11-04T10:11:19.685Z,16.17
2018-11-04T10:13:47.873Z,17.13
2018-11-04T10:16:16.091Z,17.97
2018-11-04T10:18:44.293Z,17.63
2018-11-04T10:21:12.718Z,18.43
2018-11-04T10:23:40.702Z,18.00
2018-11-04T10:26:08.921Z,17.53
2018-11-04T10:28:37.125Z,16.77
2018-11-04T10:31:05.446Z,19.23
2018-11-04T10:33:33.622Z,16.97
2018-11-04T10:36:01.840Z,16.77
2018-11-04T10:38:30.030Z,17.43
2018-11-04T10:40:58.229Z,19.23
2018-11-04T10:43:26.453Z,17.73
2018-11-04T10:45:54.651Z,18.90
2018-11-04T10:48:22.841Z,17.40
2018-11-04T10:50:51.054Z,20.70
2018-11-04T10:53:19.254Z,21.43
2018-11-04T10:55:47.485Z,20.67
2018-11-04T10:58:15.655Z,22.83
2018-11-04T11:00:49.218Z,19.57
2018-11-04T11:03:17.402Z,19.70
2018-11-04T11:05:45.605Z,18.63
2018-11-04T11:08:13.801Z,23.53
2018-11-04T11:10:42.015Z,21.13
2018-11-04T11:13:10.198Z,20.50
2018-11-04T11:15:38.410Z,23.10
2018-11-04T11:18:06.605Z,22.20
2018-11-04T11:20:34.816Z,23.47
2018-11-04T11:23:03.086Z,22.57
2018-11-04T11:25:31.213Z,20.93
2018-11-04T11:27:59.411Z,25.53
2018-11-04T11:30:27.609Z,27.60
2018-11-04T11:32:55.928Z,42.23
2018-11-04T11:35:24.113Z,28.70
2018-11-04T11:37:52.388Z,26.10
2018-11-04T11:40:20.534Z,49.93
2018-11-04T11:42:48.767Z,25.53
2018-11-04T11:45:16.954Z,21.27
2018-11-04T11:47:45.153Z,24.90
2018-11-04T11:50:20.124Z,22.90
2018-11-04T11:52:48.361Z,23.60
2018-11-04T11:55:16.557Z,21.97
2018-11-04T11:57:44.841Z,23.40
2018-11-04T12:00:13.046Z,27.90
2018-11-04T12:02:41.525Z,24.70
2018-11-04T12:05:10.223Z,22.40
2018-11-04T12:07:38.699Z,24.07
2018-11-04T12:10:08.809Z,24.83
2018-11-04T12:12:37.058Z,25.50
2018-11-04T12:15:06.374Z,25.57
2018-11-04T12:17:34.610Z,24.30
2018-11-04T12:20:02.766Z,22.83
2018-11-04T12:22:30.964Z,22.40
2018-11-04T12:24:59.150Z,24.97
2018-11-04T12:27:27.366Z,25.70
2018-11-04T12:29:55.546Z,27.03
2018-11-04T12:32:23.762Z,26.33
2018-11-04T12:34:51.949Z,25.40
2018-11-04T12:37:20.171Z,24.70
2018-11-04T12:39:48.358Z,20.70
2018-11-04T12:42:16.553Z,28.27
2018-11-04T12:44:44.802Z,25.63
2018-11-04T12:47:13.056Z,29.97
2018-11-04T12:49:41.278Z,24.93
2018-11-04T12:52:09.501Z,26.00
2018-11-04T12:54:37.677Z,21.93
2018-11-04T12:57:06.276Z,26.73
2018-11-04T12:59:34.491Z,24.70
2018-11-04T13:02:02.932Z,25.37
2018-11-04T13:04:31.030Z,24.77
2018-11-04T13:06:59.246Z,30.37
2018-11-04T13:09:27.426Z,25.83
2018-11-04T13:11:55.625Z,26.57
2018-11-04T13:14:23.831Z,24.40
2018-11-04T13:16:52.021Z,31.90
2018-11-04T13:19:20.209Z,27.23
2018-11-04T13:21:48.430Z,30.30
2018-11-04T13:24:16.617Z,28.63
2018-11-04T13:26:44.841Z,24.70
2018-11-04T13:29:13.050Z,25.60
2018-11-04T13:31:41.284Z,26.70
2018-11-04T13:34:09.518Z,27.47
2018-11-04T13:36:38.077Z,27.60
2018-11-04T13:39:07.574Z,26.80
2018-11-04T13:41:35.761Z,26.80
2018-11-04T13:44:03.980Z,23.70
2018-11-04T13:46:32.169Z,27.90
2018-11-04T13:49:00.381Z,31.40
2018-11-04T13:51:28.681Z,25.03
2018-11-04T13:53:56.893Z,27.10
2018-11-04T13:56:25.077Z,28.90
2018-11-04T13:58:53.757Z,25.40
2018-11-04T14:01:22.183Z,28.33
2018-11-04T14:03:50.414Z,25.33
2018-11-04T14:06:18.613Z,29.60
2018-11-04T14:08:46.818Z,27.37
2018-11-04T14:11:15.081Z,24.40
2018-11-04T14:13:43.475Z,23.47
2018-11-04T14:16:11.676Z,22.73
2018-11-04T14:18:39.859Z,27.27
2018-11-04T14:21:08.040Z,22.87
2018-11-04T14:23:36.286Z,24.73
2018-11-04T14:26:04.446Z,25.93
2018-11-04T14:28:32.658Z,24.50
2018-11-04T14:31:00.854Z,23.03
2018-11-04T14:33:29.054Z,24.77
2018-11-04T14:35:57.237Z,24.07
2018-11-04T14:38:25.444Z,20.57
2018-11-04T14:40:53.625Z,26.17
2018-11-04T14:43:21.822Z,25.30
2018-11-04T14:45:50.074Z,24.63
2018-11-04T14:48:18.201Z,25.47
2018-11-04T14:50:46.386Z,27.00
2018-11-04T14:53:14.607Z,26.20
2018-11-04T14:55:42.804Z,26.83
2018-11-04T14:58:11.039Z,21.30
2018-11-04T15:00:39.241Z,24.83
2018-11-04T15:03:07.777Z,24.10
2018-11-04T15:05:36.050Z,26.43
2018-11-04T15:08:04.214Z,23.70
2018-11-04T15:10:32.413Z,24.23
2018-11-04T15:13:00.665Z,25.50
2018-11-04T15:15:28.881Z,26.20
2018-11-04T15:17:57.091Z,24.57
2018-11-04T15:20:25.291Z,27.30
2018-11-04T15:22:53.497Z,26.27
2018-11-04T15:25:22.454Z,27.50
2018-11-04T15:27:50.741Z,26.20
2018-11-04T15:30:19.006Z,25.60
2018-11-04T15:32:47.229Z,24.77
2018-11-04T15:35:16.243Z,22.57
2018-11-04T15:37:44.674Z,26.77
2018-11-04T15:40:13.890Z,25.57
2018-11-04T15:42:42.150Z,23.97
2018-11-04T15:45:11.861Z,24.67
2018-11-04T15:47:40.547Z,26.27
2018-11-04T15:50:11.165Z,29.47
2018-11-04T15:52:39.519Z,29.40
2018-11-04T15:55:07.850Z,30.13
2018-11-04T15:57:36.090Z,27.30
2018-11-04T16:00:04.511Z,26.17
2018-11-04T16:02:32.714Z,29.30
2018-11-04T16:05:00.941Z,28.90
2018-11-04T16:07:29.171Z,28.73
2018-11-04T16:09:57.937Z,24.87
2018-11-04T16:12:26.201Z,24.00
2018-11-04T16:14:54.492Z,27.50
2018-11-04T16:17:22.822Z,25.50
2018-11-04T16:19:51.037Z,27.47
2018-11-04T16:22:19.230Z,25.53
2018-11-04T16:24:47.462Z,26.50
2018-11-04T16:27:15.702Z,24.83
2018-11-04T16:29:43.910Z,28.23
2018-11-04T16:32:12.168Z,24.20
2018-11-04T16:34:40.329Z,31.00
2018-11-04T16:37:08.533Z,26.17
2018-11-04T16:39:36.742Z,29.10
2018-11-04T16:42:05.271Z,32.27
2018-11-04T16:44:33.500Z,26.03
2018-11-04T16:47:01.666Z,38.53
2018-11-04T16:49:30.960Z,27.03
2018-11-04T16:51:59.182Z,28.43
2018-11-04T16:54:27.376Z,26.57
2018-11-04T16:56:55.865Z,31.47
2018-11-04T16:59:25.173Z,28.63
2018-11-04T17:01:53.408Z,30.87
2018-11-04T17:04:22.178Z,30.07
2018-11-04T17:06:50.489Z,33.20
2018-11-04T17:09:18.749Z,31.50
2018-11-04T17:11:47.022Z,31.73
2018-11-04T17:14:15.222Z,34.40
2018-11-04T17:16:43.512Z,33.47
2018-11-04T17:19:11.702Z,35.60
2018-11-04T17:21:39.954Z,30.80
2018-11-04T17:24:08.173Z,27.53
2018-11-04T17:26:36.401Z,32.27
2018-11-04T17:29:04.753Z,33.37
2018-11-04T17:31:32.957Z,32.57
2018-11-04T17:34:01.161Z,34.00
2018-11-04T17:36:29.539Z,32.27
2018-11-04T17:38:57.594Z,30.60
2018-11-04T17:41:25.813Z,33.60
2018-11-04T17:43:54.048Z,30.63
2018-11-04T17:46:22.245Z,31.50
2018-11-04T17:48:50.448Z,38.90
2018-11-04T17:51:18.658Z,34.37
2018-11-04T17:53:46.895Z,33.77
2018-11-04T17:56:15.058Z,31.87
2018-11-04T17:58:43.270Z,32.87
2018-11-04T18:01:11.471Z,31.17
2018-11-04T18:03:39.750Z,34.10
2018-11-04T18:06:07.929Z,37.33
2018-11-04T18:08:36.117Z,34.07
2018-11-04T18:11:04.306Z,35.70
2018-11-04T18:13:32.507Z,33.43
2018-11-04T18:16:00.716Z,37.27
2018-11-04T18:18:28.914Z,33.37
2018-11-04T18:20:57.119Z,33.87
2018-11-04T18:23:25.343Z,38.30
2018-11-04T18:25:53.530Z,31.90
2018-11-04T18:28:21.724Z,34.93
2018-11-04T18:30:49.940Z,37.93
2018-11-04T18:33:18.153Z,37.53
2018-11-04T18:35:46.349Z,33.57
2018-11-04T18:38:14.545Z,34.70
2018-11-04T18:40:42.742Z,36.57
2018-11-04T18:43:10.963Z,37.17
2018-11-04T18:45:39.149Z,42.40
2018-11-04T18:48:07.515Z,38.50
2018-11-04T18:50:35.762Z,37.33
2018-11-04T18:53:04.213Z,38.93
2018-11-04T18:55:32.406Z,37.07
2018-11-04T18:58:00.598Z,43.73
2018-11-04T19:00:28.805Z,42.10
2018-11-04T19:02:57.009Z,39.53
2018-11-04T19:05:35.591Z,42.40
2018-11-04T19:08:03.927Z,41.97
2018-11-04T19:11:00.141Z,41.43
2018-11-04T19:13:28.509Z,49.30
2018-11-04T19:15:56.807Z,38.93
2018-11-04T19:18:25.221Z,41.50
2018-11-04T19:20:53.474Z,45.80
2018-11-04T19:23:21.678Z,42.73
2018-11-04T19:25:51.800Z,48.73
2018-11-04T19:28:19.994Z,51.50
2018-11-04T19:30:48.262Z,42.97
2018-11-04T19:33:16.843Z,43.23
2018-11-04T19:35:45.102Z,45.20
2018-11-04T19:38:13.286Z,40.87
2018-11-04T19:40:41.537Z,44.90
2018-11-04T19:43:09.867Z,45.77
2018-11-04T19:45:38.165Z,42.57
2018-11-04T19:48:06.307Z,45.80
2018-11-04T19:50:34.510Z,45.50
2018-11-04T19:53:02.942Z,44.80
2018-11-04T19:55:37.690Z,47.47
2018-11-04T19:58:05.906Z,43.77
2018-11-04T20:00:34.101Z,42.07
2018-11-04T20:03:02.311Z,41.60
2018-11-04T20:05:30.527Z,49.10
2018-11-04T20:07:58.761Z,46.17
2018-11-04T20:10:27.079Z,44.57
2018-11-04T20:13:00.875Z,40.80
2018-11-04T20:15:29.069Z,46.30
2018-11-04T20:17:57.257Z,43.60
2018-11-04T20:20:26.575Z,42.43
2018-11-04T20:22:54.870Z,44.67
2018-11-04T20:25:28.552Z,44.80
2018-11-04T20:27:56.753Z,43.50
2018-11-04T20:30:24.962Z,44.73
2018-11-04T20:32:58.446Z,44.70
2018-11-04T20:35:27.099Z,46.77
2018-11-04T20:37:55.347Z,45.80
2018-11-04T20:40:28.975Z,47.93
2018-11-04T20:42:58.891Z,46.50
2018-11-04T20:45:27.117Z,52.60
2018-11-04T20:48:00.877Z,51.10
2018-11-04T20:50:45.035Z,43.83
2018-11-04T20:53:13.298Z,44.80
2018-11-04T20:55:47.035Z,48.67
2018-11-04T20:58:15.409Z,47.87
2018-11-04T21:00:43.507Z,42.30
2018-11-04T21:03:11.710Z,49.93
2018-11-04T21:05:39.919Z,45.50
2018-11-04T21:08:08.106Z,48.97
2018-11-04T21:10:36.298Z,44.87
2018-11-04T21:13:04.584Z,43.17
2018-11-04T21:15:32.786Z,41.20
2018-11-04T21:18:00.973Z,38.83
2018-11-04T21:20:29.277Z,43.17
2018-11-04T21:22:57.467Z,49.33
2018-11-04T21:25:25.926Z,46.33
2018-11-04T21:27:54.164Z,44.80
2018-11-04T21:30:22.286Z,45.10
2018-11-04T21:32:50.482Z,46.67
2018-11-04T21:35:18.686Z,43.93
2018-11-04T21:37:46.932Z,46.70
2018-11-04T21:40:16.237Z,53.23
2018-11-04T21:42:44.495Z,45.17
2018-11-04T21:45:13.753Z,52.03
2018-11-04T21:47:42.266Z,45.17
2018-11-04T21:50:11.857Z,43.10
2018-11-04T21:52:40.079Z,51.37
2018-11-04T21:55:10.056Z,49.67
2018-11-04T21:57:38.422Z,59.90
2018-11-04T22:00:08.624Z,50.33
2018-11-04T22:02:37.088Z,51.23
2018-11-04T22:05:06.222Z,44.50
2018-11-04T22:07:35.019Z,46.50
2018-11-04T22:10:03.454Z,45.10
2018-11-04T22:12:31.838Z,52.63
2018-11-04T22:15:00.491Z,46.77
2018-11-04T22:17:28.727Z,49.13
2018-11-04T22:19:56.959Z,47.97
2018-11-04T22:22:25.162Z,49.40
2018-11-04T22:24:53.370Z,44.57
2018-11-04T22:27:21.585Z,46.90
2018-11-04T22:29:49.777Z,46.17
2018-11-04T22:32:17.989Z,50.27
2018-11-04T22:34:46.193Z,49.07
2018-11-04T22:37:14.398Z,55.23
2018-11-04T22:39:42.599Z,50.20
2018-11-04T22:42:10.837Z,53.27
2018-11-04T22:44:38.981Z,51.50
2018-11-04T22:47:07.230Z,52.17
2018-11-04T22:49:35.410Z,52.23
2018-11-04T22:52:03.665Z,48.13
2018-11-04T22:54:31.995Z,48.13
2018-11-04T22:57:00.197Z,51.23
2018-11-04T22:59:28.377Z,49.87
2018-11-04T23:01:56.783Z,55.20
2018-11-04T23:04:30.416Z,51.77
2018-11-04T23:06:58.641Z,49.03
2018-11-04T23:09:26.825Z,51.03
2018-11-04T23:11:55.017Z,49.90
2018-11-04T23:14:23.225Z,49.27
2018-11-04T23:16:51.423Z,51.53
2018-11-04T23:19:19.601Z,48.83
2018-11-04T23:21:47.801Z,46.07
2018-11-04T23:24:15.989Z,44.73
2018-11-04T23:26:44.211Z,46.77
2018-11-04T23:29:12.405Z,42.23
2018-11-04T23:31:40.614Z,46.00
2018-11-04T23:34:08.797Z,46.73
2018-11-04T23:36:36.993Z,47.83
2018-11-04T23:39:06.570Z,51.00
2018-11-04T23:41:34.764Z,50.67
2018-11-04T23:44:03.050Z,50.17
2018-11-04T23:46:31.221Z,50.17
2018-11-04T23:48:59.407Z,45.20
2018-11-04T23:51:27.638Z,43.27
2018-11-04T23:53:55.838Z,46.90
2018-11-04T23:56:24.050Z,48.03
2018-11-04T23:58:52.237Z,50.97
